Terminal Aerodrome Forecast
Issued by NWS

Home | Current Version | Previous Version | Text Only | Print | Product List | Glossary On
Versions: 1 2 3 4 5 6 7 8 9 10 11
000
FTUS45 KGJT 131129
TAFDRO
TAF
KDRO 131129Z 1312/1412 VRB04KT P6SM SCT250
     FM132200 21006KT P6SM FEW140 BKN250
     FM140600 04003KT P6SM BKN100 BKN130=

USA.gov is the U.S. government's official web portal to all federal, state and local government web resources and services.